sensor_id;sensor_type;location;lat;lon;timestamp;P1;durP1;ratioP1;P2;durP2;ratioP2
50569;SDS011;36525;49.398;7.614;2023-04-04T00:00:25;7.05;;;2.08;;
50569;SDS011;36525;49.398;7.614;2023-04-04T00:02:52;4.13;;;1.50;;
50569;SDS011;36525;49.398;7.614;2023-04-04T00:05:19;6.22;;;1.63;;
50569;SDS011;36525;49.398;7.614;2023-04-04T00:07:47;5.57;;;1.42;;
50569;SDS011;36525;49.398;7.614;2023-04-04T00:10:14;7.65;;;1.60;;
50569;SDS011;36525;49.398;7.614;2023-04-04T00:12:42;8.32;;;1.60;;
50569;SDS011;36525;49.398;7.614;2023-04-04T00:15:09;5.28;;;1.20;;
50569;SDS011;36525;49.398;7.614;2023-04-04T00:17:37;6.93;;;1.80;;
50569;SDS011;36525;49.398;7.614;2023-04-04T00:20:05;4.80;;;1.20;;
50569;SDS011;36525;49.398;7.614;2023-04-04T00:22:32;5.90;;;1.77;;
50569;SDS011;36525;49.398;7.614;2023-04-04T00:25:01;4.97;;;1.48;;
50569;SDS011;36525;49.398;7.614;2023-04-04T00:27:28;6.15;;;1.50;;
50569;SDS011;36525;49.398;7.614;2023-04-04T00:29:55;6.13;;;1.48;;
50569;SDS011;36525;49.398;7.614;2023-04-04T00:32:22;5.28;;;1.50;;
50569;SDS011;36525;49.398;7.614;2023-04-04T00:34:52;5.45;;;1.35;;
50569;SDS011;36525;49.398;7.614;2023-04-04T00:37:22;10.13;;;1.85;;
50569;SDS011;36525;49.398;7.614;2023-04-04T00:39:53;5.18;;;1.63;;
50569;SDS011;36525;49.398;7.614;2023-04-04T00:42:20;5.22;;;1.50;;
50569;SDS011;36525;49.398;7.614;2023-04-04T00:44:47;6.53;;;1.55;;
50569;SDS011;36525;49.398;7.614;2023-04-04T00:47:17;7.30;;;1.58;;
50569;SDS011;36525;49.398;7.614;2023-04-04T00:49:47;7.30;;;1.67;;
50569;SDS011;36525;49.398;7.614;2023-04-04T00:52:14;5.20;;;1.70;;
50569;SDS011;36525;49.398;7.614;2023-04-04T00:54:42;7.07;;;1.55;;
50569;SDS011;36525;49.398;7.614;2023-04-04T00:57:09;5.90;;;1.75;;
50569;SDS011;36525;49.398;7.614;2023-04-04T00:59:36;6.00;;;1.50;;
50569;SDS011;36525;49.398;7.614;2023-04-04T01:02:04;7.88;;;1.80;;
50569;SDS011;36525;49.398;7.614;2023-04-04T01:04:31;8.45;;;2.25;;
50569;SDS011;36525;49.398;7.614;2023-04-04T01:06:59;4.28;;;1.63;;
50569;SDS011;36525;49.398;7.614;2023-04-04T01:09:27;7.75;;;1.98;;
50569;SDS011;36525;49.398;7.614;2023-04-04T01:11:54;4.05;;;1.60;;
50569;SDS011;36525;49.398;7.614;2023-04-04T01:14:22;7.53;;;1.80;;
50569;SDS011;36525;49.398;7.614;2023-04-04T01:16:49;5.05;;;1.60;;
50569;SDS011;36525;49.398;7.614;2023-04-04T01:19:35;6.53;;;2.03;;
50569;SDS011;36525;49.398;7.614;2023-04-04T01:22:10;5.65;;;1.92;;
50569;SDS011;36525;49.398;7.614;2023-04-04T01:24:39;7.75;;;1.85;;
50569;SDS011;36525;49.398;7.614;2023-04-04T01:27:08;7.15;;;2.22;;
50569;SDS011;36525;49.398;7.614;2023-04-04T01:29:35;7.65;;;2.03;;
50569;SDS011;36525;49.398;7.614;2023-04-04T01:32:12;6.15;;;2.03;;
50569;SDS011;36525;49.398;7.614;2023-04-04T01:35:08;6.28;;;1.88;;
50569;SDS011;36525;49.398;7.614;2023-04-04T01:40:41;4.47;;;1.95;;
50569;SDS011;36525;49.398;7.614;2023-04-04T01:43:15;5.80;;;2.05;;
50569;SDS011;36525;49.398;7.614;2023-04-04T01:45:42;11.82;;;2.15;;
50569;SDS011;36525;49.398;7.614;2023-04-04T01:48:10;5.63;;;2.00;;
50569;SDS011;36525;49.398;7.614;2023-04-04T01:50:37;5.38;;;1.90;;
50569;SDS011;36525;49.398;7.614;2023-04-04T01:53:04;4.47;;;1.70;;
50569;SDS011;36525;49.398;7.614;2023-04-04T01:55:32;8.48;;;1.95;;
50569;SDS011;36525;49.398;7.614;2023-04-04T01:57:58;6.13;;;1.80;;
50569;SDS011;36525;49.398;7.614;2023-04-04T02:00:26;8.82;;;2.35;;
50569;SDS011;36525;49.398;7.614;2023-04-04T02:02:53;6.82;;;1.88;;
50569;SDS011;36525;49.398;7.614;2023-04-04T02:05:20;6.32;;;1.85;;
50569;SDS011;36525;49.398;7.614;2023-04-04T02:07:48;8.80;;;2.30;;
50569;SDS011;36525;49.398;7.614;2023-04-04T02:10:18;8.52;;;2.25;;
50569;SDS011;36525;49.398;7.614;2023-04-04T02:12:45;6.45;;;2.17;;
50569;SDS011;36525;49.398;7.614;2023-04-04T02:15:12;7.57;;;2.47;;
50569;SDS011;36525;49.398;7.614;2023-04-04T02:17:39;5.43;;;1.92;;
50569;SDS011;36525;49.398;7.614;2023-04-04T02:20:08;6.45;;;1.92;;
50569;SDS011;36525;49.398;7.614;2023-04-04T02:22:37;5.47;;;1.90;;
50569;SDS011;36525;49.398;7.614;2023-04-04T02:25:05;7.10;;;2.65;;
50569;SDS011;36525;49.398;7.614;2023-04-04T02:27:32;7.47;;;2.80;;
50569;SDS011;36525;49.398;7.614;2023-04-04T02:29:59;7.55;;;2.75;;
50569;SDS011;36525;49.398;7.614;2023-04-04T02:32:26;8.77;;;2.55;;
50569;SDS011;36525;49.398;7.614;2023-04-04T02:34:53;6.93;;;2.28;;
50569;SDS011;36525;49.398;7.614;2023-04-04T02:37:20;5.45;;;2.10;;
50569;SDS011;36525;49.398;7.614;2023-04-04T02:39:48;7.50;;;2.10;;
50569;SDS011;36525;49.398;7.614;2023-04-04T02:42:14;4.93;;;2.25;;
50569;SDS011;36525;49.398;7.614;2023-04-04T02:44:42;9.30;;;2.53;;
50569;SDS011;36525;49.398;7.614;2023-04-04T02:47:09;7.22;;;2.22;;
50569;SDS011;36525;49.398;7.614;2023-04-04T02:49:36;3.80;;;1.88;;
50569;SDS011;36525;49.398;7.614;2023-04-04T02:52:05;5.22;;;2.20;;
50569;SDS011;36525;49.398;7.614;2023-04-04T02:54:33;7.78;;;2.60;;
50569;SDS011;36525;49.398;7.614;2023-04-04T02:57:00;6.93;;;2.30;;
50569;SDS011;36525;49.398;7.614;2023-04-04T02:59:29;7.50;;;2.75;;
50569;SDS011;36525;49.398;7.614;2023-04-04T03:01:56;4.72;;;2.10;;
50569;SDS011;36525;49.398;7.614;2023-04-04T03:04:23;6.50;;;2.03;;
50569;SDS011;36525;49.398;7.614;2023-04-04T03:06:51;4.50;;;1.88;;
50569;SDS011;36525;49.398;7.614;2023-04-04T03:09:19;9.73;;;1.92;;
50569;SDS011;36525;49.398;7.614;2023-04-04T03:11:46;4.32;;;1.50;;
50569;SDS011;36525;49.398;7.614;2023-04-04T03:14:13;5.82;;;2.08;;
50569;SDS011;36525;49.398;7.614;2023-04-04T03:16:40;5.65;;;2.20;;
50569;SDS011;36525;49.398;7.614;2023-04-04T03:19:07;5.65;;;2.05;;
50569;SDS011;36525;49.398;7.614;2023-04-04T03:21:34;7.50;;;1.65;;
50569;SDS011;36525;49.398;7.614;2023-04-04T03:24:04;6.95;;;2.08;;
50569;SDS011;36525;49.398;7.614;2023-04-04T03:26:31;7.10;;;2.10;;
50569;SDS011;36525;49.398;7.614;2023-04-04T03:28:58;5.18;;;2.17;;
50569;SDS011;36525;49.398;7.614;2023-04-04T03:34:30;4.80;;;1.73;;
50569;SDS011;36525;49.398;7.614;2023-04-04T03:36:58;5.72;;;2.05;;
50569;SDS011;36525;49.398;7.614;2023-04-04T03:39:28;6.22;;;1.90;;
50569;SDS011;36525;49.398;7.614;2023-04-04T03:41:55;6.00;;;2.08;;
50569;SDS011;36525;49.398;7.614;2023-04-04T03:44:23;6.65;;;1.80;;
50569;SDS011;36525;49.398;7.614;2023-04-04T03:46:50;6.88;;;1.90;;
50569;SDS011;36525;49.398;7.614;2023-04-04T03:49:17;6.65;;;2.10;;
50569;SDS011;36525;49.398;7.614;2023-04-04T03:51:44;6.90;;;2.13;;
50569;SDS011;36525;49.398;7.614;2023-04-04T03:54:11;6.20;;;1.90;;
50569;SDS011;36525;49.398;7.614;2023-04-04T03:56:38;6.47;;;2.20;;
50569;SDS011;36525;49.398;7.614;2023-04-04T03:59:05;5.88;;;2.05;;
50569;SDS011;36525;49.398;7.614;2023-04-04T04:01:33;7.50;;;2.38;;
50569;SDS011;36525;49.398;7.614;2023-04-04T04:04:00;6.95;;;2.15;;
50569;SDS011;36525;49.398;7.614;2023-04-04T04:06:27;7.53;;;2.40;;
50569;SDS011;36525;49.398;7.614;2023-04-04T04:08:54;6.63;;;2.42;;
50569;SDS011;36525;49.398;7.614;2023-04-04T04:11:21;6.95;;;2.35;;
50569;SDS011;36525;49.398;7.614;2023-04-04T04:13:48;9.23;;;2.72;;
50569;SDS011;36525;49.398;7.614;2023-04-04T04:16:16;10.52;;;2.38;;
50569;SDS011;36525;49.398;7.614;2023-04-04T04:18:43;5.93;;;2.00;;
50569;SDS011;36525;49.398;7.614;2023-04-04T04:21:10;7.18;;;2.70;;
50569;SDS011;36525;49.398;7.614;2023-04-04T04:23:37;6.00;;;2.05;;
50569;SDS011;36525;49.398;7.614;2023-04-04T04:26:04;6.90;;;2.38;;
50569;SDS011;36525;49.398;7.614;2023-04-04T04:28:33;6.28;;;2.47;;
50569;SDS011;36525;49.398;7.614;2023-04-04T04:31:07;5.68;;;2.85;;
50569;SDS011;36525;49.398;7.614;2023-04-04T04:33:35;7.40;;;2.47;;
50569;SDS011;36525;49.398;7.614;2023-04-04T04:36:03;6.45;;;2.30;;
50569;SDS011;36525;49.398;7.614;2023-04-04T04:38:31;5.50;;;2.28;;
50569;SDS011;36525;49.398;7.614;2023-04-04T04:41:00;8.20;;;2.67;;
50569;SDS011;36525;49.398;7.614;2023-04-04T04:43:27;5.35;;;2.40;;
50569;SDS011;36525;49.398;7.614;2023-04-04T04:45:54;7.80;;;2.95;;
50569;SDS011;36525;49.398;7.614;2023-04-04T04:48:22;5.93;;;2.35;;
50569;SDS011;36525;49.398;7.614;2023-04-04T04:50:49;7.35;;;3.00;;
50569;SDS011;36525;49.398;7.614;2023-04-04T04:53:16;7.68;;;2.65;;
50569;SDS011;36525;49.398;7.614;2023-04-04T04:55:44;8.20;;;2.60;;
50569;SDS011;36525;49.398;7.614;2023-04-04T04:58:11;5.75;;;2.60;;
50569;SDS011;36525;49.398;7.614;2023-04-04T05:00:40;10.07;;;2.65;;
50569;SDS011;36525;49.398;7.614;2023-04-04T05:03:08;8.38;;;2.92;;
50569;SDS011;36525;49.398;7.614;2023-04-04T05:05:35;7.72;;;2.55;;
50569;SDS011;36525;49.398;7.614;2023-04-04T05:08:02;6.68;;;2.60;;
50569;SDS011;36525;49.398;7.614;2023-04-04T05:10:29;5.93;;;2.55;;
50569;SDS011;36525;49.398;7.614;2023-04-04T05:12:57;7.35;;;2.85;;
50569;SDS011;36525;49.398;7.614;2023-04-04T05:15:26;6.13;;;2.95;;
50569;SDS011;36525;49.398;7.614;2023-04-04T05:17:57;7.28;;;2.58;;
50569;SDS011;36525;49.398;7.614;2023-04-04T05:20:26;8.40;;;2.63;;
50569;SDS011;36525;49.398;7.614;2023-04-04T05:22:53;6.38;;;2.55;;
50569;SDS011;36525;49.398;7.614;2023-04-04T05:25:20;9.93;;;3.30;;
50569;SDS011;36525;49.398;7.614;2023-04-04T05:27:47;7.45;;;3.40;;
50569;SDS011;36525;49.398;7.614;2023-04-04T05:30:17;6.85;;;2.67;;
50569;SDS011;36525;49.398;7.614;2023-04-04T05:32:45;4.45;;;2.47;;
50569;SDS011;36525;49.398;7.614;2023-04-04T05:35:12;6.50;;;2.92;;
50569;SDS011;36525;49.398;7.614;2023-04-04T05:37:39;10.20;;;2.90;;
50569;SDS011;36525;49.398;7.614;2023-04-04T05:40:06;8.20;;;2.70;;
50569;SDS011;36525;49.398;7.614;2023-04-04T05:42:34;8.00;;;2.80;;
50569;SDS011;36525;49.398;7.614;2023-04-04T05:45:01;7.10;;;3.10;;
50569;SDS011;36525;49.398;7.614;2023-04-04T05:47:29;8.40;;;2.97;;
50569;SDS011;36525;49.398;7.614;2023-04-04T05:53:22;9.43;;;2.70;;
50569;SDS011;36525;49.398;7.614;2023-04-04T05:55:53;7.20;;;2.67;;
50569;SDS011;36525;49.398;7.614;2023-04-04T05:58:20;7.47;;;2.28;;
50569;SDS011;36525;49.398;7.614;2023-04-04T06:00:47;6.40;;;2.70;;
50569;SDS011;36525;49.398;7.614;2023-04-04T06:03:14;7.22;;;2.55;;
50569;SDS011;36525;49.398;7.614;2023-04-04T06:05:43;8.07;;;2.40;;
50569;SDS011;36525;49.398;7.614;2023-04-04T06:08:19;5.28;;;3.13;;
50569;SDS011;36525;49.398;7.614;2023-04-04T06:10:46;6.63;;;2.65;;
50569;SDS011;36525;49.398;7.614;2023-04-04T06:13:13;7.70;;;2.55;;
50569;SDS011;36525;49.398;7.614;2023-04-04T06:15:40;5.65;;;2.10;;
50569;SDS011;36525;49.398;7.614;2023-04-04T06:18:07;3.90;;;2.00;;
50569;SDS011;36525;49.398;7.614;2023-04-04T06:20:35;5.93;;;2.17;;
50569;SDS011;36525;49.398;7.614;2023-04-04T06:23:01;4.85;;;2.40;;
50569;SDS011;36525;49.398;7.614;2023-04-04T06:25:30;5.70;;;1.92;;
50569;SDS011;36525;49.398;7.614;2023-04-04T06:27:57;7.05;;;2.50;;
50569;SDS011;36525;49.398;7.614;2023-04-04T06:30:24;8.15;;;2.40;;
50569;SDS011;36525;49.398;7.614;2023-04-04T06:32:52;7.57;;;2.38;;
50569;SDS011;36525;49.398;7.614;2023-04-04T06:35:20;4.90;;;1.77;;
50569;SDS011;36525;49.398;7.614;2023-04-04T06:37:52;5.38;;;2.33;;
50569;SDS011;36525;49.398;7.614;2023-04-04T06:40:22;7.07;;;2.13;;
50569;SDS011;36525;49.398;7.614;2023-04-04T06:42:50;7.30;;;2.20;;
50569;SDS011;36525;49.398;7.614;2023-04-04T06:45:20;4.40;;;1.88;;
50569;SDS011;36525;49.398;7.614;2023-04-04T06:47:47;7.78;;;2.20;;
50569;SDS011;36525;49.398;7.614;2023-04-04T06:50:17;8.95;;;2.47;;
50569;SDS011;36525;49.398;7.614;2023-04-04T06:52:44;5.93;;;2.05;;
50569;SDS011;36525;49.398;7.614;2023-04-04T06:55:11;9.02;;;2.58;;
50569;SDS011;36525;49.398;7.614;2023-04-04T06:57:38;6.10;;;2.17;;
50569;SDS011;36525;49.398;7.614;2023-04-04T07:00:05;5.20;;;1.77;;
50569;SDS011;36525;49.398;7.614;2023-04-04T07:02:33;5.75;;;1.90;;
50569;SDS011;36525;49.398;7.614;2023-04-04T07:05:01;7.32;;;2.08;;
50569;SDS011;36525;49.398;7.614;2023-04-04T07:07:29;6.45;;;2.40;;
50569;SDS011;36525;49.398;7.614;2023-04-04T07:09:57;6.65;;;1.90;;
50569;SDS011;36525;49.398;7.614;2023-04-04T07:12:24;4.60;;;1.65;;
50569;SDS011;36525;49.398;7.614;2023-04-04T07:14:51;5.40;;;2.17;;
50569;SDS011;36525;49.398;7.614;2023-04-04T07:17:17;4.57;;;1.67;;
50569;SDS011;36525;49.398;7.614;2023-04-04T07:19:50;4.70;;;1.63;;
50569;SDS011;36525;49.398;7.614;2023-04-04T07:22:17;5.63;;;1.60;;
50569;SDS011;36525;49.398;7.614;2023-04-04T07:24:44;6.47;;;1.92;;
50569;SDS011;36525;49.398;7.614;2023-04-04T07:27:13;7.57;;;2.33;;
50569;SDS011;36525;49.398;7.614;2023-04-04T07:29:41;6.57;;;1.92;;
50569;SDS011;36525;49.398;7.614;2023-04-04T07:32:08;4.25;;;1.52;;
50569;SDS011;36525;49.398;7.614;2023-04-04T07:34:35;5.65;;;1.67;;
50569;SDS011;36525;49.398;7.614;2023-04-04T07:37:02;6.53;;;2.05;;
50569;SDS011;36525;49.398;7.614;2023-04-04T07:39:29;5.00;;;1.85;;
50569;SDS011;36525;49.398;7.614;2023-04-04T07:41:57;4.65;;;2.17;;
50569;SDS011;36525;49.398;7.614;2023-04-04T07:44:25;5.57;;;1.67;;
50569;SDS011;36525;49.398;7.614;2023-04-04T07:46:52;5.35;;;1.70;;
50569;SDS011;36525;49.398;7.614;2023-04-04T07:49:34;5.65;;;1.70;;
50569;SDS011;36525;49.398;7.614;2023-04-04T07:52:01;5.88;;;2.10;;
50569;SDS011;36525;49.398;7.614;2023-04-04T07:54:29;5.53;;;1.73;;
50569;SDS011;36525;49.398;7.614;2023-04-04T07:56:57;3.15;;;1.40;;
50569;SDS011;36525;49.398;7.614;2023-04-04T07:59:23;6.45;;;2.22;;
50569;SDS011;36525;49.398;7.614;2023-04-04T08:01:51;6.95;;;1.55;;
50569;SDS011;36525;49.398;7.614;2023-04-04T08:04:18;6.80;;;1.83;;
50569;SDS011;36525;49.398;7.614;2023-04-04T08:06:45;6.47;;;1.95;;
50569;SDS011;36525;49.398;7.614;2023-04-04T08:09:12;8.20;;;1.65;;
50569;SDS011;36525;49.398;7.614;2023-04-04T08:11:39;6.53;;;1.52;;
50569;SDS011;36525;49.398;7.614;2023-04-04T08:14:06;3.63;;;1.38;;
50569;SDS011;36525;49.398;7.614;2023-04-04T08:16:37;6.80;;;1.83;;
50569;SDS011;36525;49.398;7.614;2023-04-04T08:19:05;4.53;;;1.40;;
50569;SDS011;36525;49.398;7.614;2023-04-04T08:21:33;6.70;;;1.55;;
50569;SDS011;36525;49.398;7.614;2023-04-04T08:24:00;4.13;;;1.20;;
50569;SDS011;36525;49.398;7.614;2023-04-04T08:26:27;3.05;;;1.13;;
50569;SDS011;36525;49.398;7.614;2023-04-04T08:28:54;4.55;;;1.20;;
50569;SDS011;36525;49.398;7.614;2023-04-04T08:31:21;3.33;;;1.20;;
50569;SDS011;36525;49.398;7.614;2023-04-04T08:33:48;3.63;;;1.35;;
50569;SDS011;36525;49.398;7.614;2023-04-04T08:36:15;8.30;;;1.70;;
50569;SDS011;36525;49.398;7.614;2023-04-04T08:38:44;5.68;;;1.50;;
50569;SDS011;36525;49.398;7.614;2023-04-04T08:41:11;3.78;;;1.20;;
50569;SDS011;36525;49.398;7.614;2023-04-04T08:43:38;4.78;;;1.15;;
50569;SDS011;36525;49.398;7.614;2023-04-04T08:46:11;5.53;;;1.48;;
50569;SDS011;36525;49.398;7.614;2023-04-04T08:48:40;2.78;;;1.00;;
50569;SDS011;36525;49.398;7.614;2023-04-04T08:51:11;3.63;;;1.17;;
50569;SDS011;36525;49.398;7.614;2023-04-04T08:53:41;3.50;;;1.08;;
50569;SDS011;36525;49.398;7.614;2023-04-04T08:56:09;5.95;;;1.10;;
50569;SDS011;36525;49.398;7.614;2023-04-04T08:58:37;5.20;;;1.23;;
50569;SDS011;36525;49.398;7.614;2023-04-04T09:01:05;3.95;;;1.33;;
50569;SDS011;36525;49.398;7.614;2023-04-04T09:03:32;4.22;;;1.23;;
50569;SDS011;36525;49.398;7.614;2023-04-04T09:06:02;5.32;;;1.30;;
50569;SDS011;36525;49.398;7.614;2023-04-04T09:08:30;3.97;;;1.20;;
50569;SDS011;36525;49.398;7.614;2023-04-04T09:11:00;5.57;;;1.40;;
50569;SDS011;36525;49.398;7.614;2023-04-04T09:13:29;4.22;;;1.55;;
50569;SDS011;36525;49.398;7.614;2023-04-04T09:15:56;5.65;;;1.10;;
50569;SDS011;36525;49.398;7.614;2023-04-04T09:18:25;5.03;;;1.50;;
50569;SDS011;36525;49.398;7.614;2023-04-04T09:20:53;5.22;;;1.33;;
50569;SDS011;36525;49.398;7.614;2023-04-04T09:23:20;4.18;;;1.30;;
50569;SDS011;36525;49.398;7.614;2023-04-04T09:25:50;5.43;;;1.55;;
50569;SDS011;36525;49.398;7.614;2023-04-04T09:28:29;4.85;;;1.52;;
50569;SDS011;36525;49.398;7.614;2023-04-04T09:31:00;4.63;;;1.45;;
50569;SDS011;36525;49.398;7.614;2023-04-04T09:33:30;4.10;;;1.25;;
50569;SDS011;36525;49.398;7.614;2023-04-04T09:36:03;3.40;;;1.20;;
50569;SDS011;36525;49.398;7.614;2023-04-04T09:38:36;4.50;;;1.17;;
50569;SDS011;36525;49.398;7.614;2023-04-04T09:41:06;3.90;;;1.20;;
50569;SDS011;36525;49.398;7.614;2023-04-04T09:43:38;4.85;;;1.20;;
50569;SDS011;36525;49.398;7.614;2023-04-04T09:46:05;3.47;;;1.20;;
50569;SDS011;36525;49.398;7.614;2023-04-04T09:48:33;3.40;;;1.48;;
50569;SDS011;36525;49.398;7.614;2023-04-04T09:51:06;3.92;;;1.35;;
50569;SDS011;36525;49.398;7.614;2023-04-04T09:53:37;5.30;;;1.45;;
50569;SDS011;36525;49.398;7.614;2023-04-04T09:56:07;4.03;;;1.50;;
50569;SDS011;36525;49.398;7.614;2023-04-04T09:58:34;6.78;;;1.58;;
50569;SDS011;36525;49.398;7.614;2023-04-04T10:01:14;5.43;;;1.67;;
50569;SDS011;36525;49.398;7.614;2023-04-04T10:03:45;3.50;;;1.35;;
50569;SDS011;36525;49.398;7.614;2023-04-04T10:06:19;5.20;;;1.70;;
50569;SDS011;36525;49.398;7.614;2023-04-04T10:08:48;3.05;;;1.38;;
50569;SDS011;36525;49.398;7.614;2023-04-04T10:11:29;4.22;;;1.63;;
50569;SDS011;36525;49.398;7.614;2023-04-04T10:14:00;5.22;;;1.95;;
50569;SDS011;36525;49.398;7.614;2023-04-04T10:16:32;4.07;;;1.50;;
50569;SDS011;36525;49.398;7.614;2023-04-04T10:19:02;5.18;;;1.50;;
50569;SDS011;36525;49.398;7.614;2023-04-04T10:21:33;4.60;;;1.70;;
50569;SDS011;36525;49.398;7.614;2023-04-04T10:24:00;4.63;;;1.65;;
50569;SDS011;36525;49.398;7.614;2023-04-04T10:26:34;4.10;;;1.73;;
50569;SDS011;36525;49.398;7.614;2023-04-04T10:29:02;4.97;;;1.55;;
50569;SDS011;36525;49.398;7.614;2023-04-04T10:31:32;3.75;;;1.63;;
50569;SDS011;36525;49.398;7.614;2023-04-04T10:34:27;5.05;;;1.70;;
50569;SDS011;36525;49.398;7.614;2023-04-04T10:37:05;5.38;;;1.58;;
50569;SDS011;36525;49.398;7.614;2023-04-04T10:39:50;6.93;;;1.73;;
50569;SDS011;36525;49.398;7.614;2023-04-04T10:42:25;5.45;;;1.67;;
50569;SDS011;36525;49.398;7.614;2023-04-04T10:44:58;7.40;;;1.70;;
50569;SDS011;36525;49.398;7.614;2023-04-04T10:47:45;5.68;;;1.67;;
50569;SDS011;36525;49.398;7.614;2023-04-04T10:50:13;6.88;;;1.75;;
50569;SDS011;36525;49.398;7.614;2023-04-04T10:52:41;3.58;;;1.70;;
50569;SDS011;36525;49.398;7.614;2023-04-04T10:55:10;5.43;;;1.40;;
50569;SDS011;36525;49.398;7.614;2023-04-04T10:57:46;6.82;;;2.03;;
50569;SDS011;36525;49.398;7.614;2023-04-04T11:00:18;4.30;;;1.75;;
50569;SDS011;36525;49.398;7.614;2023-04-04T11:05:24;6.05;;;1.50;;
50569;SDS011;36525;49.398;7.614;2023-04-04T11:08:16;8.80;;;2.70;;
50569;SDS011;36525;49.398;7.614;2023-04-04T11:10:48;5.57;;;2.00;;
50569;SDS011;36525;49.398;7.614;2023-04-04T11:13:17;5.05;;;1.52;;
50569;SDS011;36525;49.398;7.614;2023-04-04T11:16:12;5.82;;;1.42;;
50569;SDS011;36525;49.398;7.614;2023-04-04T11:21:13;5.80;;;1.35;;
50569;SDS011;36525;49.398;7.614;2023-04-04T11:28:55;3.08;;;1.40;;
50569;SDS011;36525;49.398;7.614;2023-04-04T11:31:28;5.07;;;2.10;;
50569;SDS011;36525;49.398;7.614;2023-04-04T11:37:14;4.28;;;1.90;;
50569;SDS011;36525;49.398;7.614;2023-04-04T11:39:48;4.28;;;1.60;;
50569;SDS011;36525;49.398;7.614;2023-04-04T11:42:21;5.07;;;1.83;;
50569;SDS011;36525;49.398;7.614;2023-04-04T11:47:25;6.35;;;2.08;;
50569;SDS011;36525;49.398;7.614;2023-04-04T11:49:53;6.88;;;1.80;;
50569;SDS011;36525;49.398;7.614;2023-04-04T11:52:21;4.40;;;1.83;;
50569;SDS011;36525;49.398;7.614;2023-04-04T11:54:52;6.18;;;1.65;;
50569;SDS011;36525;49.398;7.614;2023-04-04T11:57:19;5.70;;;2.05;;
50569;SDS011;36525;49.398;7.614;2023-04-04T11:59:47;4.22;;;1.50;;
50569;SDS011;36525;49.398;7.614;2023-04-04T12:02:25;4.10;;;1.85;;
50569;SDS011;36525;49.398;7.614;2023-04-04T12:04:57;4.97;;;1.90;;
50569;SDS011;36525;49.398;7.614;2023-04-04T12:07:25;5.35;;;2.10;;
50569;SDS011;36525;49.398;7.614;2023-04-04T12:09:54;5.43;;;1.80;;
50569;SDS011;36525;49.398;7.614;2023-04-04T12:12:23;6.53;;;1.95;;
50569;SDS011;36525;49.398;7.614;2023-04-04T12:14:52;4.63;;;1.60;;
50569;SDS011;36525;49.398;7.614;2023-04-04T12:17:39;4.75;;;1.70;;
50569;SDS011;36525;49.398;7.614;2023-04-04T12:20:09;4.72;;;1.92;;
50569;SDS011;36525;49.398;7.614;2023-04-04T12:22:36;5.50;;;1.60;;
50569;SDS011;36525;49.398;7.614;2023-04-04T12:25:03;5.05;;;1.42;;
50569;SDS011;36525;49.398;7.614;2023-04-04T12:27:31;8.02;;;1.52;;
50569;SDS011;36525;49.398;7.614;2023-04-04T12:29:59;3.80;;;1.60;;
50569;SDS011;36525;49.398;7.614;2023-04-04T12:32:26;3.80;;;1.42;;
50569;SDS011;36525;49.398;7.614;2023-04-04T12:34:57;5.80;;;1.90;;
50569;SDS011;36525;49.398;7.614;2023-04-04T12:37:29;6.28;;;1.60;;
50569;SDS011;36525;49.398;7.614;2023-04-04T12:39:56;6.40;;;2.15;;
50569;SDS011;36525;49.398;7.614;2023-04-04T12:42:24;5.63;;;1.95;;
50569;SDS011;36525;49.398;7.614;2023-04-04T12:44:52;6.50;;;2.33;;
50569;SDS011;36525;49.398;7.614;2023-04-04T12:47:20;5.32;;;1.63;;
50569;SDS011;36525;49.398;7.614;2023-04-04T12:49:51;5.45;;;2.67;;
50569;SDS011;36525;49.398;7.614;2023-04-04T12:52:27;5.07;;;1.92;;
50569;SDS011;36525;49.398;7.614;2023-04-04T12:54:58;5.32;;;2.08;;
50569;SDS011;36525;49.398;7.614;2023-04-04T12:57:35;4.15;;;1.70;;
50569;SDS011;36525;49.398;7.614;2023-04-04T13:00:05;5.32;;;1.73;;
50569;SDS011;36525;49.398;7.614;2023-04-04T13:02:35;5.72;;;1.90;;
50569;SDS011;36525;49.398;7.614;2023-04-04T13:05:04;4.72;;;1.90;;
50569;SDS011;36525;49.398;7.614;2023-04-04T13:08:03;6.13;;;1.92;;
50569;SDS011;36525;49.398;7.614;2023-04-04T13:16:05;4.55;;;2.13;;
50569;SDS011;36525;49.398;7.614;2023-04-04T13:18:35;6.63;;;2.20;;
50569;SDS011;36525;49.398;7.614;2023-04-04T13:21:10;5.00;;;2.35;;
50569;SDS011;36525;49.398;7.614;2023-04-04T13:23:39;7.68;;;1.90;;
50569;SDS011;36525;49.398;7.614;2023-04-04T13:26:07;4.93;;;2.05;;
50569;SDS011;36525;49.398;7.614;2023-04-04T13:28:35;9.20;;;2.28;;
50569;SDS011;36525;49.398;7.614;2023-04-04T13:31:03;6.68;;;2.42;;
50569;SDS011;36525;49.398;7.614;2023-04-04T13:33:34;5.10;;;1.80;;
50569;SDS011;36525;49.398;7.614;2023-04-04T13:36:01;5.15;;;2.10;;
50569;SDS011;36525;49.398;7.614;2023-04-04T13:38:28;4.97;;;2.40;;
50569;SDS011;36525;49.398;7.614;2023-04-04T13:40:58;5.25;;;2.15;;
50569;SDS011;36525;49.398;7.614;2023-04-04T13:47:35;4.35;;;1.92;;
50569;SDS011;36525;49.398;7.614;2023-04-04T13:50:02;4.47;;;1.88;;
50569;SDS011;36525;49.398;7.614;2023-04-04T13:52:31;6.90;;;2.22;;
50569;SDS011;36525;49.398;7.614;2023-04-04T13:54:58;6.40;;;2.15;;
50569;SDS011;36525;49.398;7.614;2023-04-04T13:57:27;5.78;;;2.10;;
50569;SDS011;36525;49.398;7.614;2023-04-04T13:59:54;3.97;;;2.00;;
50569;SDS011;36525;49.398;7.614;2023-04-04T14:02:22;4.72;;;1.60;;
50569;SDS011;36525;49.398;7.614;2023-04-04T14:04:50;4.22;;;1.65;;
50569;SDS011;36525;49.398;7.614;2023-04-04T14:07:18;4.18;;;2.10;;
50569;SDS011;36525;49.398;7.614;2023-04-04T14:09:45;2.60;;;1.70;;
50569;SDS011;36525;49.398;7.614;2023-04-04T14:12:12;4.25;;;1.75;;
50569;SDS011;36525;49.398;7.614;2023-04-04T14:14:40;4.95;;;1.98;;
50569;SDS011;36525;49.398;7.614;2023-04-04T14:17:07;6.45;;;2.65;;
50569;SDS011;36525;49.398;7.614;2023-04-04T14:19:34;3.00;;;1.80;;
50569;SDS011;36525;49.398;7.614;2023-04-04T14:22:03;5.32;;;2.00;;
50569;SDS011;36525;49.398;7.614;2023-04-04T14:24:31;4.72;;;1.73;;
50569;SDS011;36525;49.398;7.614;2023-04-04T14:26:58;6.82;;;2.30;;
50569;SDS011;36525;49.398;7.614;2023-04-04T14:29:26;5.10;;;1.95;;
50569;SDS011;36525;49.398;7.614;2023-04-04T14:31:53;3.17;;;1.73;;
50569;SDS011;36525;49.398;7.614;2023-04-04T14:34:23;4.38;;;2.00;;
50569;SDS011;36525;49.398;7.614;2023-04-04T14:36:53;4.20;;;1.80;;
50569;SDS011;36525;49.398;7.614;2023-04-04T14:39:21;3.97;;;1.77;;
50569;SDS011;36525;49.398;7.614;2023-04-04T14:41:48;4.63;;;2.05;;
50569;SDS011;36525;49.398;7.614;2023-04-04T14:44:15;4.72;;;2.00;;
50569;SDS011;36525;49.398;7.614;2023-04-04T14:46:42;3.65;;;1.65;;
50569;SDS011;36525;49.398;7.614;2023-04-04T14:49:10;7.05;;;1.70;;
50569;SDS011;36525;49.398;7.614;2023-04-04T14:51:37;4.15;;;1.90;;
50569;SDS011;36525;49.398;7.614;2023-04-04T14:54:04;4.63;;;1.73;;
50569;SDS011;36525;49.398;7.614;2023-04-04T14:56:31;3.72;;;1.50;;
50569;SDS011;36525;49.398;7.614;2023-04-04T14:58:58;3.92;;;2.00;;
50569;SDS011;36525;49.398;7.614;2023-04-04T15:01:27;4.22;;;1.67;;
50569;SDS011;36525;49.398;7.614;2023-04-04T15:03:54;4.00;;;1.80;;
50569;SDS011;36525;49.398;7.614;2023-04-04T15:06:21;3.70;;;1.60;;
50569;SDS011;36525;49.398;7.614;2023-04-04T15:08:49;7.55;;;1.83;;
50569;SDS011;36525;49.398;7.614;2023-04-04T15:11:16;5.38;;;1.92;;
50569;SDS011;36525;49.398;7.614;2023-04-04T15:13:43;4.93;;;2.17;;
50569;SDS011;36525;49.398;7.614;2023-04-04T15:16:11;5.43;;;1.50;;
50569;SDS011;36525;49.398;7.614;2023-04-04T15:18:38;3.50;;;1.60;;
50569;SDS011;36525;49.398;7.614;2023-04-04T15:21:05;4.70;;;1.60;;
50569;SDS011;36525;49.398;7.614;2023-04-04T15:23:32;3.67;;;1.52;;
50569;SDS011;36525;49.398;7.614;2023-04-04T15:25:59;4.07;;;1.40;;
50569;SDS011;36525;49.398;7.614;2023-04-04T15:28:26;4.63;;;1.60;;
50569;SDS011;36525;49.398;7.614;2023-04-04T15:30:53;4.80;;;1.25;;
50569;SDS011;36525;49.398;7.614;2023-04-04T15:33:22;3.33;;;1.60;;